الصفحة الرئيسية
METAR-TAF:

METAR-TAF

مطار :

كولورادو سيتي, أريزونا, الولايات المتحدة

دائرة عرض: 36-57-36N, خط طول: 113-00-50W, ارتفاع: 1486 متر

مراقبة الطقس الحالي

تاريخ ووقت الإصدار 11 دقيقة قبل الساعة 00:55UTC
رياح هادئة
درجة الحرارة 5°درجة مئوية
الرطوبة 81%
ضغط 1023 hPa
الرؤية: 16.1 كم
غيوم متفرقة على ارتفاع 3300 قدم

METAR: KAZC 230055Z AUTO 00000KT 10SM SCT033 05/02 A3022 RMK AO2

زمن: 18:06 (01:06 UTC)


TAF: مفقودة

أرصاد الطقس والتوقعات من أكثر من 4000 مطار (تقارير الطقس للمطار METAR والتنبؤ بالطقس بالمطارTAF).

المحطات المتاحة هي النقط الصفراء والحمراء على الخريطة.

حرك المؤشر فوق النقطة لمعرفة اسم المحطة.

ثم انقر لمعرفة أرصاد وتوقعات الطقس.

لتغيير الخارطة: اضغط على الأزرار الخضراء مع رمز الصليب الأسود للتكبير. على الزر الأخضر مع شرطة للتصغير، أو على الأسهم الخضراء للخرائط المجاورة.


METAR-TAF: